createdAt,value
2022-12-25T00:02:18.022Z,95.91
2022-12-25T00:04:45.908Z,96.54
2022-12-25T00:07:13.987Z,96.17
2022-12-25T00:09:42.276Z,96.27
2022-12-25T00:12:10.180Z,96.03
2022-12-25T00:14:39.445Z,96.54
2022-12-25T00:17:07.747Z,95.79
2022-12-25T00:19:35.702Z,95.76
2022-12-25T00:22:03.575Z,95.86
2022-12-25T00:24:31.882Z,96.31
2022-12-25T00:27:00.162Z,96.11
2022-12-25T00:29:27.950Z,96.20
2022-12-25T00:31:57.257Z,95.92
2022-12-25T00:34:25.296Z,96.15
2022-12-25T00:36:53.677Z,96.47
2022-12-25T00:39:21.605Z,96.49
2022-12-25T00:42:07.043Z,96.11
2022-12-25T00:44:35.741Z,96.12
2022-12-25T00:47:05.403Z,96.70
2022-12-25T00:49:33.260Z,96.05
2022-12-25T00:52:01.886Z,96.67
2022-12-25T00:54:29.781Z,96.68
2022-12-25T00:56:57.577Z,96.24
2022-12-25T00:59:25.427Z,96.16
2022-12-25T01:01:53.638Z,96.14
2022-12-25T01:04:22.938Z,96.02
2022-12-25T01:06:51.334Z,95.97
2022-12-25T01:09:36.520Z,96.45
2022-12-25T01:12:04.959Z,96.37
2022-12-25T01:14:37.047Z,96.29
2022-12-25T01:17:05.460Z,96.58
2022-12-25T01:19:34.646Z,96.79
2022-12-25T01:22:02.741Z,96.95
2022-12-25T01:24:31.109Z,96.68
2022-12-25T01:26:58.948Z,97.16
2022-12-25T01:29:27.597Z,96.59
2022-12-25T01:31:56.009Z,97.04
2022-12-25T01:34:23.897Z,96.97
2022-12-25T01:36:53.156Z,96.92
2022-12-25T01:39:21.797Z,96.55
2022-12-25T01:41:49.743Z,96.87
2022-12-25T01:44:56.856Z,97.22
2022-12-25T01:47:25.081Z,97.24
2022-12-25T01:49:52.920Z,96.66
2022-12-25T01:52:25.000Z,96.60
2022-12-25T01:54:56.628Z,97.18
2022-12-25T01:57:27.079Z,97.38
2022-12-25T01:59:56.148Z,96.93
2022-12-25T02:02:24.518Z,96.79
2022-12-25T02:04:59.833Z,97.15
2022-12-25T02:07:30.947Z,97.11
2022-12-25T02:09:58.766Z,96.72
2022-12-25T02:12:29.980Z,96.46
2022-12-25T02:15:05.776Z,96.54
2022-12-25T02:17:41.757Z,95.89
2022-12-25T02:20:38.807Z,95.56
2022-12-25T02:23:35.071Z,95.77
2022-12-25T02:26:16.795Z,95.93
2022-12-25T02:28:53.246Z,96.41
2022-12-25T02:31:31.161Z,96.48
2022-12-25T02:34:05.387Z,96.67
2022-12-25T02:36:38.796Z,96.06
2022-12-25T02:39:32.283Z,96.89
2022-12-25T02:42:03.597Z,96.73
2022-12-25T02:44:54.291Z,96.95
2022-12-25T02:47:40.017Z,96.58
2022-12-25T02:50:27.664Z,96.55
2022-12-25T02:53:17.344Z,96.54
2022-12-25T02:56:05.894Z,96.64
2022-12-25T02:58:56.293Z,96.85
2022-12-25T03:01:47.823Z,96.95
2022-12-25T03:04:37.329Z,96.60
2022-12-25T03:07:09.509Z,97.19
2022-12-25T03:09:59.325Z,96.67
2022-12-25T03:12:38.595Z,96.57
2022-12-25T03:15:35.283Z,96.60
2022-12-25T03:18:08.604Z,97.40
2022-12-25T03:20:55.796Z,96.75
2022-12-25T03:23:46.798Z,97.10
2022-12-25T03:26:32.466Z,97.02
2022-12-25T03:29:00.448Z,97.96
2022-12-25T03:31:36.710Z,97.48
2022-12-25T03:34:44.971Z,97.85
2022-12-25T03:37:47.155Z,98.07
2022-12-25T03:40:39.133Z,98.23
2022-12-25T03:43:31.266Z,98.48
2022-12-25T03:46:23.428Z,98.61
2022-12-25T03:49:12.907Z,98.49
2022-12-25T03:52:02.705Z,98.83
2022-12-25T03:54:51.990Z,98.81
2022-12-25T03:57:37.402Z,99.17
2022-12-25T04:00:24.064Z,99.03
2022-12-25T04:03:09.816Z,100.00
2022-12-25T04:05:55.581Z,99.47
2022-12-25T04:08:42.664Z,99.54
2022-12-25T04:11:28.168Z,100.00
2022-12-25T04:14:13.428Z,100.00
2022-12-25T04:16:58.674Z,100.00
2022-12-25T04:19:44.119Z,100.00
2022-12-25T04:22:29.456Z,100.00
2022-12-25T04:25:16.556Z,100.00
2022-12-25T04:28:03.087Z,100.00
2022-12-25T04:30:48.834Z,100.00
2022-12-25T04:33:34.901Z,100.00
2022-12-25T04:36:12.118Z,100.00
2022-12-25T04:38:41.624Z,100.00
2022-12-25T04:41:12.813Z,100.00
2022-12-25T04:43:40.921Z,100.00
2022-12-25T04:46:08.905Z,100.00
2022-12-25T04:48:38.339Z,100.00
2022-12-25T04:51:14.957Z,100.00
2022-12-25T04:53:43.215Z,100.00
2022-12-25T04:56:12.820Z,100.00
2022-12-25T04:58:40.757Z,100.00
2022-12-25T05:01:09.203Z,100.00
2022-12-25T05:03:37.636Z,100.00
2022-12-25T05:06:06.708Z,100.00
2022-12-25T05:08:35.884Z,100.00
2022-12-25T05:11:07.251Z,100.00
2022-12-25T05:13:36.751Z,100.00
2022-12-25T05:16:06.885Z,100.00
2022-12-25T05:18:34.738Z,100.00
2022-12-25T05:21:03.111Z,100.00
2022-12-25T05:23:31.430Z,100.00
2022-12-25T05:25:59.687Z,100.00
2022-12-25T05:28:28.153Z,100.00
2022-12-25T05:30:58.949Z,100.00
2022-12-25T05:33:26.865Z,100.00
2022-12-25T05:35:55.154Z,100.00
2022-12-25T05:38:23.012Z,100.00
2022-12-25T05:40:53.134Z,100.00
2022-12-25T05:43:21.207Z,100.00
2022-12-25T05:45:49.113Z,100.00
2022-12-25T05:48:18.739Z,100.00
2022-12-25T05:50:46.728Z,100.00
2022-12-25T05:53:16.901Z,99.94
2022-12-25T05:55:45.652Z,99.83
2022-12-25T05:58:14.354Z,99.29
2022-12-25T06:00:44.744Z,98.89
2022-12-25T06:03:12.781Z,98.74
2022-12-25T06:05:42.394Z,97.95
2022-12-25T06:08:12.888Z,98.35
2022-12-25T06:10:40.792Z,99.00
2022-12-25T06:13:08.609Z,99.15
2022-12-25T06:15:40.747Z,99.33
2022-12-25T06:18:09.418Z,99.36
2022-12-25T06:20:37.876Z,99.01
2022-12-25T06:23:07.162Z,99.06
2022-12-25T06:25:34.972Z,99.31
2022-12-25T06:28:02.746Z,98.86
2022-12-25T06:30:31.103Z,99.04
2022-12-25T06:32:59.963Z,97.54
2022-12-25T06:35:28.377Z,97.68
2022-12-25T06:37:57.226Z,98.03
2022-12-25T06:40:26.565Z,98.48
2022-12-25T06:42:54.691Z,98.25
2022-12-25T06:45:23.174Z,98.20
2022-12-25T06:47:51.099Z,98.75
2022-12-25T06:50:18.966Z,98.79
2022-12-25T06:52:47.108Z,98.49
2022-12-25T06:55:15.113Z,98.29
2022-12-25T06:57:44.337Z,98.66
2022-12-25T07:00:13.110Z,98.70
2022-12-25T07:02:47.690Z,98.52
2022-12-25T07:05:16.030Z,98.54
2022-12-25T07:07:43.867Z,98.38
2022-12-25T07:10:12.472Z,98.45
2022-12-25T07:12:40.949Z,98.74
2022-12-25T07:15:11.622Z,98.60
2022-12-25T07:17:39.855Z,98.64
2022-12-25T07:20:09.016Z,98.58
2022-12-25T07:22:37.259Z,98.34
2022-12-25T07:25:05.522Z,97.90
2022-12-25T07:27:33.374Z,98.28
2022-12-25T07:30:01.579Z,97.96
2022-12-25T07:32:32.639Z,97.97
2022-12-25T07:35:00.494Z,98.21
2022-12-25T07:37:28.708Z,98.28
2022-12-25T07:39:56.751Z,98.17
2022-12-25T07:42:25.581Z,97.87
2022-12-25T07:44:53.530Z,97.90
2022-12-25T07:47:21.663Z,97.94
2022-12-25T07:49:51.391Z,98.48
2022-12-25T07:52:19.193Z,98.28
2022-12-25T07:54:47.057Z,98.26
2022-12-25T07:57:15.328Z,98.38
2022-12-25T07:59:43.235Z,98.65
2022-12-25T08:02:11.705Z,98.45
2022-12-25T08:04:40.139Z,99.07
2022-12-25T08:07:09.266Z,98.63
2022-12-25T08:09:37.368Z,98.68
2022-12-25T08:12:05.915Z,98.67
2022-12-25T08:14:33.717Z,98.49
2022-12-25T08:17:01.994Z,98.03
2022-12-25T08:19:30.546Z,97.42
2022-12-25T08:21:58.665Z,97.17
2022-12-25T08:24:28.111Z,97.25
2022-12-25T08:26:56.181Z,97.01
2022-12-25T08:29:24.062Z,97.31
2022-12-25T08:31:52.328Z,97.09
2022-12-25T08:34:20.234Z,97.17
2022-12-25T08:36:48.136Z,97.14
2022-12-25T08:39:16.684Z,97.16
2022-12-25T08:41:45.834Z,97.26
2022-12-25T08:44:14.175Z,97.08
2022-12-25T08:46:42.204Z,97.39
2022-12-25T08:49:10.157Z,97.30
2022-12-25T08:51:39.093Z,97.43
2022-12-25T08:54:07.696Z,97.51
2022-12-25T08:56:36.623Z,97.39
2022-12-25T08:59:05.884Z,97.45
2022-12-25T09:01:34.613Z,97.25
2022-12-25T09:04:02.497Z,97.18
2022-12-25T09:06:30.394Z,97.00
2022-12-25T09:08:58.914Z,96.86
2022-12-25T09:11:26.741Z,96.70
2022-12-25T09:13:54.666Z,96.28
2022-12-25T09:16:24.700Z,95.87
2022-12-25T09:18:52.600Z,96.03
2022-12-25T09:21:20.815Z,92.98
2022-12-25T09:23:50.601Z,93.04
2022-12-25T09:26:20.341Z,93.60
2022-12-25T09:28:51.834Z,93.46
2022-12-25T09:31:21.077Z,94.03
2022-12-25T09:33:50.695Z,93.86
2022-12-25T09:36:18.825Z,93.29
2022-12-25T09:38:46.950Z,93.54
2022-12-25T09:41:19.432Z,93.70
2022-12-25T09:43:51.660Z,92.96
2022-12-25T09:46:22.546Z,92.94
2022-12-25T09:49:02.820Z,92.77
2022-12-25T09:51:35.345Z,92.67
2022-12-25T09:54:10.907Z,92.33
2022-12-25T09:56:39.205Z,91.63
2022-12-25T09:59:19.884Z,91.73
2022-12-25T10:02:21.758Z,91.34
2022-12-25T10:05:06.719Z,90.83
2022-12-25T10:07:44.868Z,90.35
2022-12-25T10:10:27.458Z,90.47
2022-12-25T10:13:06.121Z,89.95
2022-12-25T10:15:45.054Z,89.19
2022-12-25T10:18:37.021Z,88.28
2022-12-25T10:21:13.406Z,87.71
2022-12-25T10:23:45.297Z,87.02
2022-12-25T10:26:16.874Z,87.40
2022-12-25T10:28:46.978Z,86.58
2022-12-25T10:31:22.450Z,86.40
2022-12-25T10:33:52.760Z,86.29
2022-12-25T10:36:26.205Z,85.91
2022-12-25T10:38:55.271Z,85.53
2022-12-25T10:41:50.929Z,85.70
2022-12-25T10:44:20.931Z,85.32
2022-12-25T10:46:50.365Z,85.32
2022-12-25T10:49:20.841Z,85.87
2022-12-25T10:51:51.808Z,85.52
2022-12-25T10:54:25.873Z,85.95
2022-12-25T10:56:55.648Z,85.10
2022-12-25T10:59:24.143Z,84.75
2022-12-25T11:01:55.234Z,84.62
2022-12-25T11:04:28.683Z,84.31
2022-12-25T11:07:00.570Z,83.35
2022-12-25T11:09:28.849Z,83.71
2022-12-25T11:11:57.087Z,82.54
2022-12-25T11:14:25.616Z,82.47
2022-12-25T11:16:53.422Z,82.51
2022-12-25T11:19:30.538Z,82.67
2022-12-25T11:22:01.755Z,81.08
2022-12-25T11:24:31.970Z,81.79
2022-12-25T11:27:02.986Z,82.13
2022-12-25T11:29:39.374Z,81.74
2022-12-25T11:32:17.601Z,81.81
2022-12-25T11:34:48.098Z,82.27
2022-12-25T11:37:21.271Z,83.00
2022-12-25T11:39:49.504Z,83.19
2022-12-25T11:42:24.137Z,83.28
2022-12-25T11:44:58.290Z,82.57
2022-12-25T11:47:32.336Z,83.29
2022-12-25T11:50:06.294Z,82.92
2022-12-25T11:52:38.643Z,83.05
2022-12-25T11:55:19.814Z,83.26
2022-12-25T11:57:54.419Z,83.25
2022-12-25T12:00:23.147Z,82.75
2022-12-25T12:02:58.939Z,82.60
2022-12-25T12:05:33.738Z,81.55
2022-12-25T12:08:05.527Z,78.59
2022-12-25T12:10:58.489Z,79.56
2022-12-25T12:13:41.195Z,79.28
2022-12-25T12:16:11.148Z,78.11
2022-12-25T12:18:38.975Z,78.01
2022-12-25T12:21:11.330Z,77.75
2022-12-25T12:23:54.331Z,76.44
2022-12-25T12:26:24.960Z,76.12
2022-12-25T12:28:55.662Z,74.98
2022-12-25T12:31:24.323Z,74.69
2022-12-25T12:33:57.408Z,75.14
2022-12-25T12:36:36.096Z,74.42
2022-12-25T12:39:07.037Z,74.34
2022-12-25T12:41:45.879Z,74.18
2022-12-25T12:44:15.978Z,74.04
2022-12-25T12:46:52.948Z,73.76
2022-12-25T12:49:26.755Z,74.47
2022-12-25T12:52:06.403Z,74.80
2022-12-25T12:54:54.037Z,75.37
2022-12-25T12:57:27.007Z,76.44
2022-12-25T12:59:55.475Z,76.55
2022-12-25T13:02:48.595Z,76.33
2022-12-25T13:05:32.219Z,76.22
2022-12-25T13:08:13.590Z,75.59
2022-12-25T13:10:48.415Z,75.17
2022-12-25T13:13:21.561Z,75.19
2022-12-25T13:15:51.858Z,74.79
2022-12-25T13:18:20.133Z,73.95
2022-12-25T13:20:55.282Z,74.64
2022-12-25T13:23:27.975Z,73.04
2022-12-25T13:25:59.198Z,73.32
2022-12-25T13:28:28.900Z,73.84
2022-12-25T13:31:04.625Z,73.46
2022-12-25T13:33:32.664Z,71.09
2022-12-25T13:36:00.606Z,72.40
2022-12-25T13:38:30.697Z,72.74
2022-12-25T13:41:17.723Z,71.87
2022-12-25T13:43:47.361Z,72.16
2022-12-25T13:46:16.335Z,73.14
2022-12-25T13:48:44.391Z,73.05
2022-12-25T13:51:17.369Z,72.96
2022-12-25T13:53:45.870Z,73.22
2022-12-25T13:56:17.177Z,73.27
2022-12-25T13:58:49.490Z,73.34
2022-12-25T14:01:18.803Z,73.48
2022-12-25T14:03:48.248Z,73.88
2022-12-25T14:06:20.595Z,74.39
2022-12-25T14:08:49.611Z,75.23
2022-12-25T14:11:22.629Z,75.49
2022-12-25T14:13:53.545Z,75.98
2022-12-25T14:16:23.170Z,76.28
2022-12-25T14:18:53.405Z,76.31
2022-12-25T14:21:29.626Z,76.51
2022-12-25T14:23:57.897Z,77.11
2022-12-25T14:26:30.377Z,76.88
2022-12-25T14:29:15.650Z,77.05
2022-12-25T14:31:46.849Z,77.36
2022-12-25T14:34:19.530Z,76.67
2022-12-25T14:36:47.977Z,77.53
2022-12-25T14:39:29.059Z,77.82
2022-12-25T14:41:58.595Z,78.33
2022-12-25T14:44:32.474Z,78.77
2022-12-25T14:47:15.652Z,78.25
2022-12-25T14:49:44.045Z,78.99
2022-12-25T14:52:19.048Z,79.25
2022-12-25T14:54:49.783Z,79.21
2022-12-25T14:57:29.838Z,78.95
2022-12-25T15:00:04.320Z,78.78
2022-12-25T15:02:41.638Z,79.22
2022-12-25T15:05:32.223Z,78.23
2022-12-25T15:08:20.564Z,78.47
2022-12-25T15:11:05.647Z,78.83
2022-12-25T15:13:35.320Z,79.09
2022-12-25T15:16:07.812Z,79.17
2022-12-25T15:18:41.261Z,79.79
2022-12-25T15:21:17.955Z,79.89
2022-12-25T15:23:45.941Z,80.27
2022-12-25T15:26:15.331Z,80.64
2022-12-25T15:28:45.188Z,81.13
2022-12-25T15:31:22.066Z,81.63
2022-12-25T15:33:50.874Z,81.35
2022-12-25T15:36:18.797Z,81.15
2022-12-25T15:38:46.635Z,81.28
2022-12-25T15:41:32.219Z,81.77
2022-12-25T15:44:02.337Z,81.39
2022-12-25T15:46:30.559Z,81.62
2022-12-25T15:48:59.034Z,81.52
2022-12-25T15:51:27.050Z,81.15
2022-12-25T15:53:55.033Z,80.59
2022-12-25T15:56:24.017Z,80.77
2022-12-25T15:58:51.991Z,80.38
2022-12-25T16:01:22.228Z,80.12
2022-12-25T16:03:51.563Z,80.25
2022-12-25T16:06:20.007Z,78.84
2022-12-25T16:08:47.941Z,79.22
2022-12-25T16:11:15.907Z,79.12
2022-12-25T16:13:44.264Z,79.01
2022-12-25T16:16:12.405Z,78.73
2022-12-25T16:18:47.368Z,78.18
2022-12-25T16:21:18.782Z,78.55
2022-12-25T16:23:47.030Z,76.53
2022-12-25T16:26:14.888Z,75.75
2022-12-25T16:28:42.712Z,76.00
2022-12-25T16:31:12.250Z,76.03
2022-12-25T16:33:41.541Z,75.68
2022-12-25T16:36:10.099Z,75.80
2022-12-25T16:38:38.926Z,75.79
2022-12-25T16:41:07.152Z,75.93
2022-12-25T16:43:34.936Z,75.44
2022-12-25T16:46:03.064Z,75.96
2022-12-25T16:48:30.927Z,75.61
2022-12-25T16:51:00.389Z,74.72
2022-12-25T16:53:28.568Z,75.70
2022-12-25T16:56:06.313Z,75.37
2022-12-25T16:58:34.851Z,75.26
2022-12-25T17:01:07.760Z,75.76
2022-12-25T17:03:36.028Z,75.36
2022-12-25T17:06:06.402Z,75.81
2022-12-25T17:08:34.225Z,75.71
2022-12-25T17:11:06.273Z,76.48
2022-12-25T17:13:34.145Z,76.25
2022-12-25T17:16:12.123Z,76.33
2022-12-25T17:18:39.966Z,76.12
2022-12-25T17:21:09.492Z,75.95
2022-12-25T17:23:38.868Z,76.04
2022-12-25T17:26:07.328Z,75.95
2022-12-25T17:28:35.823Z,75.87
2022-12-25T17:31:04.737Z,75.72
2022-12-25T17:33:33.864Z,74.87
2022-12-25T17:36:06.340Z,75.06
2022-12-25T17:38:35.876Z,74.98
2022-12-25T17:41:07.121Z,74.21
2022-12-25T17:43:37.220Z,74.23
2022-12-25T17:46:06.978Z,74.27
2022-12-25T17:48:36.595Z,73.37
2022-12-25T17:51:05.820Z,73.35
2022-12-25T17:53:36.600Z,73.33
2022-12-25T17:56:07.222Z,73.82
2022-12-25T17:58:35.072Z,72.72
2022-12-25T18:01:07.473Z,72.49
2022-12-25T18:03:36.693Z,72.81
2022-12-25T18:06:04.885Z,72.10
2022-12-25T18:08:39.025Z,72.69
2022-12-25T18:11:15.136Z,72.05
2022-12-25T18:13:43.860Z,72.24
2022-12-25T18:16:13.606Z,72.02
2022-12-25T18:18:49.532Z,71.94
2022-12-25T18:21:20.451Z,71.60
2022-12-25T18:23:49.351Z,71.47
2022-12-25T18:26:19.376Z,71.19
2022-12-25T18:28:47.900Z,71.62
2022-12-25T18:31:18.015Z,71.72
2022-12-25T18:33:46.907Z,71.24
2022-12-25T18:36:16.875Z,72.08
2022-12-25T18:38:44.739Z,71.86
2022-12-25T18:41:13.204Z,71.22
2022-12-25T18:43:52.062Z,71.48
2022-12-25T18:46:24.224Z,71.51
2022-12-25T18:48:53.314Z,71.86
2022-12-25T18:51:21.174Z,72.25
2022-12-25T18:53:48.974Z,71.22
2022-12-25T18:56:18.838Z,71.73
2022-12-25T18:58:48.502Z,71.68
2022-12-25T19:01:18.705Z,70.80
2022-12-25T19:03:48.898Z,71.43
2022-12-25T19:06:21.140Z,71.22
2022-12-25T19:08:49.598Z,70.78
2022-12-25T19:11:18.091Z,69.92
2022-12-25T19:13:47.992Z,70.48
2022-12-25T19:16:16.656Z,70.96
2022-12-25T19:18:45.260Z,70.00
2022-12-25T19:21:13.671Z,69.62
2022-12-25T19:23:41.996Z,69.96
2022-12-25T19:26:11.261Z,69.85
2022-12-25T19:28:40.375Z,70.40
2022-12-25T19:31:10.961Z,70.70
2022-12-25T19:33:41.429Z,70.71
2022-12-25T19:36:12.017Z,70.92
2022-12-25T19:38:39.901Z,69.97
2022-12-25T19:41:08.773Z,69.77
2022-12-25T19:43:38.536Z,70.37
2022-12-25T19:46:08.768Z,70.98
2022-12-25T19:48:38.873Z,69.95
2022-12-25T19:51:16.251Z,69.89
2022-12-25T19:53:44.102Z,70.08
2022-12-25T19:56:11.976Z,69.77
2022-12-25T19:58:40.487Z,70.07
2022-12-25T20:01:10.244Z,70.57
2022-12-25T20:03:46.145Z,70.39
2022-12-25T20:06:19.866Z,70.73
2022-12-25T20:08:48.429Z,70.88
2022-12-25T20:11:16.870Z,70.21
2022-12-25T20:13:45.199Z,69.96
2022-12-25T20:16:13.642Z,70.71
2022-12-25T20:18:43.388Z,70.27
2022-12-25T20:21:14.524Z,70.57
2022-12-25T20:23:42.634Z,71.04
2022-12-25T20:26:12.030Z,70.11
2022-12-25T20:28:43.720Z,69.86
2022-12-25T20:31:14.947Z,70.67
2022-12-25T20:33:48.827Z,70.47
2022-12-25T20:36:18.481Z,70.43
2022-12-25T20:38:46.665Z,70.81
2022-12-25T20:41:32.430Z,70.37
2022-12-25T20:44:01.888Z,70.57
2022-12-25T20:46:30.148Z,69.39
2022-12-25T20:48:59.878Z,69.67
2022-12-25T20:51:28.634Z,69.63
2022-12-25T20:53:57.079Z,70.12
2022-12-25T20:56:27.552Z,69.59
2022-12-25T20:58:56.276Z,69.66
2022-12-25T21:01:27.844Z,70.26
2022-12-25T21:03:56.200Z,70.25
2022-12-25T21:06:25.988Z,69.56
2022-12-25T21:08:57.569Z,69.61
2022-12-25T21:11:25.468Z,69.51
2022-12-25T21:13:53.958Z,69.60
2022-12-25T21:16:23.500Z,69.41
2022-12-25T21:18:54.343Z,69.79
2022-12-25T21:21:23.940Z,70.00
2022-12-25T21:23:56.404Z,69.31
2022-12-25T21:26:26.455Z,70.12
2022-12-25T21:28:57.738Z,69.53
2022-12-25T21:31:26.492Z,69.61
2022-12-25T21:33:55.367Z,69.87
2022-12-25T21:36:27.613Z,69.78
2022-12-25T21:38:59.157Z,69.00
2022-12-25T21:41:28.299Z,69.53
2022-12-25T21:43:56.988Z,70.15
2022-12-25T21:46:27.974Z,70.10
2022-12-25T21:48:57.299Z,69.87
2022-12-25T21:51:44.915Z,70.10
2022-12-25T21:54:15.896Z,69.96
2022-12-25T21:56:45.680Z,70.44
2022-12-25T21:59:16.025Z,69.86
2022-12-25T22:01:44.476Z,70.20
2022-12-25T22:04:15.285Z,70.23
2022-12-25T22:07:00.803Z,69.37
2022-12-25T22:09:30.629Z,70.22
2022-12-25T22:12:16.262Z,70.01
2022-12-25T22:14:56.256Z,69.78
2022-12-25T22:17:44.994Z,69.92
2022-12-25T22:20:16.251Z,70.14
2022-12-25T22:22:44.550Z,69.63
2022-12-25T22:25:15.135Z,69.84
2022-12-25T22:27:44.607Z,69.44
2022-12-25T22:30:15.596Z,70.54
2022-12-25T22:32:44.139Z,69.81
2022-12-25T22:35:13.246Z,69.87
2022-12-25T22:37:42.514Z,69.70
2022-12-25T22:40:15.070Z,69.81
2022-12-25T22:42:43.875Z,69.68
2022-12-25T22:45:12.812Z,69.77
2022-12-25T22:47:41.461Z,69.89
2022-12-25T22:50:10.335Z,69.18
2022-12-25T22:52:38.261Z,69.34
2022-12-25T22:55:08.426Z,69.71
2022-12-25T22:57:37.705Z,69.68
2022-12-25T23:00:09.227Z,69.82
2022-12-25T23:02:37.531Z,69.51
2022-12-25T23:05:06.075Z,68.99
2022-12-25T23:07:34.270Z,68.15
2022-12-25T23:10:02.122Z,68.72
2022-12-25T23:12:50.212Z,68.05
2022-12-25T23:15:19.646Z,68.43
2022-12-25T23:18:05.442Z,68.78
2022-12-25T23:20:51.357Z,68.63
2022-12-25T23:23:36.946Z,68.96
2022-12-25T23:26:11.725Z,68.61
2022-12-25T23:28:59.559Z,68.59
2022-12-25T23:31:31.848Z,68.56
2022-12-25T23:33:59.975Z,68.77
2022-12-25T23:36:27.976Z,68.24
2022-12-25T23:38:56.197Z,68.81
2022-12-25T23:41:24.853Z,68.66
2022-12-25T23:43:52.888Z,68.81
2022-12-25T23:46:21.281Z,68.03
2022-12-25T23:48:50.928Z,67.83
2022-12-25T23:51:19.214Z,68.49
2022-12-25T23:53:47.002Z,66.54
2022-12-25T23:56:15.381Z,67.71
2022-12-25T23:58:45.289Z,67.26
